Orick, California
Current Conditions -  °F | °C
As of 8:53 AM on Saturday 20 Dec 2014 (Local Time) from KACV Reporting Station
Light Rain Light Rain  
Wind Chill: 53°   Ceiling: 5000
Heat Index: 53°   Visibility: 7mi
Dew Point: 49°   Wind: 12mph
Humidity: 86%   Direction: 150°SSE
Pressure: 30.03"   Gusts: NA
Location:  41.29°N, 124.06°W
Report Text: KACV 201653Z AUTO 15010KT 7SM -RA FEW034 OVC050 12/09 A3003 RMK AO2 SLP173 P0004 T01170094
Loading
Personal Weather Stations






























Interactive Weather Map New forecast layout! Learn more

10-Day Weather Forecast

Advertisements
Track Severe Weather on mobile